AirNav   Everest Fuels
 
 650 users online  

N48 Horsham Valley Airways Inc Heliport
Horsham, Pennsylvania, USA

GOING TO HORSHAM?


FAA INFORMATION EFFECTIVE 16 JULY 2020

Location

FAA Identifier: N48
Lat/Long: 40-12-07.3890N 075-10-41.6250W
40-12.123150N 075-10.693750W
40.2020525,-75.1782292
(estimated)
Elevation: 250 ft. / 76 m (estimated)
Variation: 12W (1985)
From city: 2 miles NW of HORSHAM, PA
Time zone: UTC -4 (UTC -5 during Standard Time)
Zip code: 19044

Heliport Operations

Heliport use: Open to the public
Activation date: 06/1980
Control tower: no
ARTCC: NEW YORK CENTER
FSS: WILLIAMSPORT FLIGHT SERVICE STATION
NOTAMs facility: IPT (NOTAM-D service available)
Attendance: UNATNDD
FOR ATTENDANT CALL 215-674-2100.
Wind indicator: lighted
Segmented circle: no
Lights: SS-SR

Heliport Communications

CTAF/UNICOM: 123.075
WX AWOS-3 at LOM (6 nm SW): 118.925 (215-646-1068)
WX ASOS at DYL (8 nm N): 118.875 (215-345-0392)
WX ASOS at PNE (11 nm SE): 121.15 (215-677-0146)
WX AWOS-3 at CKZ (12 nm NW): 126.325 (215-257-7291)
WX AWOS-3 at UKT (17 nm NW): 119.475 (215-538-7610)
WX ASOS at TTN (17 nm E): 126.775 (609-538-8690)
WX ASOS at PTW (17 nm W): 119.425 (610-495-0823)

Nearby radio navigation aids

VOR radial/distance  VOR name  Freq  Var
ARDr266/12.8YARDLEY VOR/DME108.2010W
PTWr103/17.5POTTSTOWN VORTAC116.5009W
MXEr062/28.3MODENA VORTAC113.2009W
GXUr305/29.1MC GUIRE VORTAC110.6012W
SBJr231/30.3SOLBERG VOR/DME112.9010W
RBVr280/31.3ROBBINSVILLE VORTAC113.8010W
ETXr144/32.4EAST TEXAS VOR/DME110.2009W
FJCr168/33.9ALLENTOWN VORTAC117.5010W
OODr020/34.4WOODSTOWN VORTAC112.8010W
DQOr042/37.1DUPONT VORTAC114.0010W
BWZr215/39.3BROADWAY VOR/DME114.2011W

 
NDB name  Hdg/Dist  Freq  Var  ID
AMBLER059/6.727512WING .. -. --.
LAKEHURST295/39.839611WNEL -. . .-..

Heliport Services

Parking: hangars

Runway Information

Helipad H1

Dimensions: 60 x 60 ft. / 18 x 18 m
Surface: asphalt
Runway edge lights: FLD
FLOOD LGTS FM BLDGS.
Operational restrictions: INGRESS 240; EGRESS 060.
Latitude: 40-12.123150N
Longitude: 075-10.693750W
Elevation: 250.0 ft.
Traffic pattern: leftleft

Heliport Ownership and Management from official FAA records

Ownership: Privately-owned
Owner: HORSHAM VALLEY AIRWAYS INC
450 CAREDEAN DRIVE
HORSHAM, PA 19044
Phone 215-674-2100
Manager: HOYT BANGS
450 CAREDEAN DR
HORSHAM, PA 19044
Phone 215-674-2100

Heliport Operational Statistics

Aircraft operations: 120/year *
100% local general aviation
* for 12-month period ending 28 February 2020

Additional Remarks

AVOID OVERFLIGHT OF HOUSES EAST & WEST.
FOR CD CTC PHILADELPHIA APCH AT 800-354-9884.

Instrument Procedures

There are no published instrument procedures at N48.

Some nearby airports with instrument procedures:

KLOM - Wings Field Airport (6 nm SW)
KDYL - Doylestown Airport (8 nm N)
KPNE - Northeast Philadelphia Airport (11 nm SE)
N10 - Perkiomen Valley Airport (12 nm W)
KCKZ - Pennridge Airport (12 nm NW)
KUKT - Quakertown Airport (17 nm NW)
KTTN - Trenton Mercer Airport (17 nm E)
KPTW - Heritage Field Airport (17 nm W)
 
Loc | Ops | Rwys | IFR | FBO | Links
Com | Nav | Svcs | Stats | Notes
Area around N48 (Horsham Valley Airways Inc Heliport)
 
Road maps at: MapQuest Bing Google
 
Aerial photo
WARNING: Photo may not be current or correct
Aerial photo of N48 (Horsham Valley Airways Inc Heliport)
looking to the Southeast, toward I-10

Do you have a better or more recent aerial photo of Horsham Valley Airways Inc Heliport that you would like to share? If so, please send us your photo.

 
Sectional chart

 
Airport distance calculator
Flying to Horsham Valley Airways Inc Heliport? Find the distance to fly.

From to N48

Sunrise and sunset
Times for 05-Aug-2020
 Local
(UTC-4)
 Zulu
(UTC)
Morning civil twilight05:3409:34
Sunrise06:0410:04
Sunset20:0900:09
Evening civil twilight20:3900:39

Current date and time
Zulu (UTC)  05-Aug-2020 11:29:40
Local (UTC-4)  05-Aug-2020 07:29:40
 
METAR
KLOM 
6nm SW 
051115Z AUTO 29004KT 10SM CLR 21/19 A3002 RMK AO2 T02130189
KDYL 
8nm N 
051054Z AUTO VRB03KT 10SM CLR 22/18 A2999 RMK AO2 SLP151 T02170178
KPNE 
10nm SE 
051054Z AUTO 29005KT 10SM CLR 22/19 A3001 RMK AO2 SLP159 T02170194
KCKZ 
12nm NW 
051115Z AUTO 30003KT 10SM CLR 19/19 A3003 RMK AO2
KUKT 
17nm NW 
051115Z AUTO 00000KT 10SM CLR 20/19 A3002 RMK A01
KPTW 
17nm W 
051054Z AUTO 00000KT 6SM BR CLR 19/18 A3003 RMK AO2 SLPNO T01940178 $
KTTN 
17nm E 
ASOS 133.70 609-538-8690
051053Z 00000KT 10SM CLR 22/20 A2998 RMK AO2 SLP145 T02170200
TAF
KPNE 
10nm SE 
050520Z 0506/0606 23007KT P6SM SCT100 FM051400 30007KT P6SM FEW040 FM051800 27007KT P6SM SCT040 FM060000 28005KT P6SM SKC
KTTN 
17nm E 
050520Z 0506/0606 20005KT P6SM SCT100 FM051400 31006KT P6SM FEW040 FM051800 27007KT P6SM SCT040 FM060000 VRB02KT P6SM SKC
NOTAMs
Click for the latest NOTAMs
NOTAMs are issued by the DoD/FAA and will open in a separate window not controlled by AirNav.

 

 
 

Would you like to see your business listed on this page?

 If your business provides an interesting product or service to pilots, flight crews, aircraft, or users of the Horsham Valley Airways Inc Heliport, you should consider listing it here.  To start the listing process, click on the button below
 
Add a business
 

Other Pages about Horsham Valley Airways Inc Heliport

Update a link
 
Copyright © AirNav, LLC. All rights reserved. Privacy Policy  Contact